Latest Weather Observations for Oodnadatta

IDS60801

Issued at 11:02 am CDT Tuesday 23 December 2014 (issued every 30 minutes, with the page automatically refreshed every 10 minutes)

About weather observations | Map of weather stations | Latest weather observations for SA | Other Formats
Station Details ID: 017043 Name: OODNADATTA AIRPORT Lat: -27.56 Lon: 135.45 Height: 116.5 m
Data from the previous 72 hours. | See also: Recent months at Oodnadatta
Date/Time
CDT
Temp
°C
App
Temp
°C
Dew
Point
Rel
Hum
%
Delta-T
°C
Wind Press
QNH
hPa
Press
MSL
hPa
Rain
since 9 am
mm
Dir
 
Spd
km/h
Gust
km/h
Spd
kts
Gust
kts
23/11:00am 24.9 19.2 11.8 44 7.5 S 33 44 18 24 1014.1 - 0.0
23/10:30am 23.8 18.2 12.1 48 6.7 S 33 44 18 24 1014.3 - 0.0
23/10:00am 23.7 18.2 12.4 49 6.5 S 33 43 18 23 1014.3 - 0.0
23/09:30am 22.8 16.3 11.8 50 6.2 S 37 48 20 26 1014.1 - 0.0
23/09:00am 22.6 17.2 12.8 54 5.6 S 33 43 18 23 1013.8 1013.1 0.0
23/08:30am 21.0 15.3 12.9 60 4.6 S 35 44 19 24 1013.7 - 0.0
23/08:00am 20.7 14.2 12.9 61 4.5 S 39 48 21 26 1013.3 - 0.0
23/07:30am 20.4 13.9 12.9 62 4.3 S 39 48 21 26 1012.8 - 0.0
23/06:30am 20.4 14.3 13.1 63 4.2 S 37 46 20 25 1011.7 - 0.0
23/06:00am 20.9 16.3 13.6 63 4.2 S 30 39 16 21 1011.6 1010.9 0.0
23/05:30am 21.4 15.8 13.3 60 4.7 S 35 46 19 25 1011.1 - 0.0
23/05:00am 21.7 15.3 13.3 59 4.9 S 39 46 21 25 1010.6 - 0.0
23/04:30am 22.7 16.5 13.7 56 5.3 S 39 46 21 25 1010.0 - 0.0
23/04:00am 23.4 16.5 14.1 56 5.5 S 43 52 23 28 1009.6 - 0.0
23/03:30am 24.6 19.0 14.4 53 6.1 S 37 46 20 25 1009.6 - 0.0
23/03:00am 24.8 20.2 14.6 53 6.1 S 32 41 17 22 1009.8 1009.1 0.0
23/02:30am 25.2 20.7 14.9 52 6.2 S 32 43 17 23 1010.1 - 0.0
23/02:00am 25.7 20.4 15.4 53 6.3 S 37 48 20 26 1010.0 - 0.0
23/01:30am 26.2 20.6 15.6 52 6.5 S 39 46 21 25 1010.0 - 0.0
23/01:00am 27.2 22.5 15.9 50 7.0 S 35 46 19 25 1010.1 - 0.0
23/12:30am 28.5 23.5 16.1 47 7.7 SSW 37 46 20 25 1009.8 - 0.0
23/12:00am 29.2 23.0 16.0 44 8.2 SSW 43 52 23 28 1009.7 1009.0 0.0
 
Date/Time
CDT
Temp
°C
App
Temp
°C
Dew
Point
Rel
Hum
%
Delta-T
°C
Wind Press
QNH
hPa
Press
MSL
hPa
Rain
since 9 am
mm
Dir
 
Spd
km/h
Gust
km/h
Spd
kts
Gust
kts
22/11:30pm 30.2 25.5 15.9 42 8.9 SSW 35 44 19 24 1009.3 - 0.0
22/11:00pm 31.1 25.9 15.5 39 9.7 SSW 37 46 20 25 1008.5 - 0.0
22/10:30pm 32.3 27.4 15.3 35 10.6 SSW 35 44 19 24 1008.0 - 0.0
22/10:00pm 32.8 29.2 15.3 34 10.9 SSW 28 35 15 19 1008.1 - 0.0
22/09:30pm 33.2 30.9 15.7 35 11.0 S 22 33 12 18 1007.6 - 0.0
22/09:00pm 33.2 29.5 16.1 35 10.8 SSW 30 35 16 19 1007.0 1006.3 0.0
22/08:30pm 33.7 29.7 16.1 34 11.1 SSW 32 39 17 21 1006.7 - 0.0
22/08:00pm 33.9 29.9 16.3 35 11.2 SSW 32 43 17 23 1006.2 - 0.0
22/07:30pm 34.9 29.9 16.2 32 11.9 SSW 37 46 20 25 1005.7 - 0.0
22/07:00pm 35.6 31.8 16.8 32 12.1 SSW 32 46 17 25 1005.1 - 0.0
22/06:30pm 35.9 31.7 17.1 32 12.1 SSW 35 44 19 24 1005.1 - 0.0
22/06:00pm 36.8 31.9 16.4 30 13.1 SSW 37 48 20 26 1004.7 1004.0 0.0
22/05:30pm 37.4 33.5 16.9 30 13.3 SSW 33 44 18 24 1004.6 - 0.0
22/05:10pm 37.1 33.5 17.1 30 13.0 SSW 32 50 17 27 1004.4 - 0.0
22/05:00pm 37.6 34.3 16.0 28 13.8 WSW 28 39 15 21 1004.6 - 0.0
22/04:30pm 37.7 33.7 16.1 28 13.8 SSW 32 50 17 27 1004.6 - 0.0
22/04:00pm 38.0 34.8 16.3 27 13.9 SSW 28 54 15 29 1004.7 - 0.0
22/03:30pm 38.1 35.0 13.3 22 15.3 WSW 22 32 12 17 1005.1 - 0.0
22/03:00pm 37.8 34.8 13.7 23 15.0 SW 22 39 12 21 1005.2 1004.5 0.0
22/02:30pm 38.5 36.1 14.3 23 15.2 W 20 33 11 18 1005.4 - 0.0
22/02:00pm 38.5 36.4 12.3 21 16.0 WSW 15 33 8 18 1005.8 - 0.0
22/01:30pm 36.7 34.2 12.2 23 14.8 WSW 17 24 9 13 1006.1 - 0.0
22/01:00pm 36.4 36.5 14.4 27 13.7 E 7 15 4 8 1006.5 - 0.0
22/12:30pm 34.9 35.3 14.7 29 12.6 SW 6 9 3 5 1006.6 - 0.0
22/12:00pm 34.6 32.4 16.0 33 11.8 SW 22 28 12 15 1007.4 1006.7 0.0
22/11:30am 34.5 33.6 14.9 31 12.2 S 13 19 7 10 1007.3 - 0.0
22/11:00am 33.7 32.7 15.7 34 11.3 ESE 15 20 8 11 1006.9 - 0.0
22/10:30am 32.1 30.6 16.8 40 9.7 ESE 20 26 11 14 1006.9 - 0.0
22/10:00am 29.7 27.8 16.8 45 8.1 SE 22 26 12 14 1007.3 - 0.0
22/09:30am 27.7 25.9 16.9 51 6.8 S 22 28 12 15 1007.9 - 0.0
22/09:00am 27.7 25.0 16.6 50 6.9 SSW 26 32 14 17 1008.4 1007.7 0.0
22/08:30am 27.1 24.3 17.3 55 6.2 S 28 35 15 19 1008.2 - 0.0
22/08:00am 26.8 23.1 17.0 55 6.1 SSW 32 37 17 20 1008.1 - 0.0
22/07:30am 26.4 22.7 17.5 58 5.6 SSW 33 43 18 23 1007.7 - 0.0
22/07:00am 26.6 21.6 17.1 56 6.0 SSW 39 50 21 27 1007.3 - 0.0
22/06:30am 27.0 20.9 16.3 52 6.6 SSW 43 57 23 31 1006.5 - 0.0
22/06:00am 28.8 21.9 14.6 42 8.7 SSW 44 56 24 30 1006.2 1005.5 0.0
22/05:46am 29.3 22.9 14.3 40 9.1 SW 41 59 22 32 1006.1 - 0.0
22/05:44am 29.6 23.2 14.2 39 9.3 SW 41 52 22 28 1006.2 - 0.0
22/05:30am 32.5 26.8 9.9 25 13.0 WSW 30 44 16 24 1005.6 - 0.0
22/05:00am 33.4 30.1 2.3 14 15.9 NNW 9 13 5 7 1005.0 - 0.0
22/04:30am 34.5 30.0 2.1 13 16.6 N 15 20 8 11 1004.5 - 0.0
22/04:00am 34.7 29.3 2.3 13 16.7 N 20 26 11 14 1004.5 - 0.0
22/03:30am 34.0 29.4 1.7 13 16.4 N 15 20 8 11 1004.4 - 0.0
22/03:00am 36.0 29.4 2.1 12 17.6 WNW 26 43 14 23 1004.7 1004.0 0.0
22/02:30am 34.1 29.0 0.7 12 16.7 WNW 17 20 9 11 1004.7 - 0.0
22/02:00am 34.6 28.6 1.1 12 16.9 N 22 37 12 20 1004.4 - 0.0
22/01:30am 34.1 29.0 0.7 12 16.7 N 17 20 9 11 1004.5 - 0.0
22/01:00am 34.6 29.0 1.1 12 16.9 NNE 20 24 11 13 1004.5 - 0.0
22/12:30am 34.9 29.3 1.3 12 17.0 NNE 20 24 11 13 1004.8 - 0.0
22/12:00am 34.9 29.3 1.3 12 17.1 NNE 20 26 11 14 1005.0 1004.3 0.0
 
Date/Time
CDT
Temp
°C
App
Temp
°C
Dew
Point
Rel
Hum
%
Delta-T
°C
Wind Press
QNH
hPa
Press
MSL
hPa
Rain
since 9 am
mm
Dir
 
Spd
km/h
Gust
km/h
Spd
kts
Gust
kts
21/11:30pm 34.7 30.0 1.1 12 16.9 NNE 15 17 8 9 1005.2 - 0.0
21/11:00pm 35.7 30.2 1.9 12 17.4 NNE 20 24 11 13 1005.1 - 0.0
21/10:30pm 35.4 30.5 1.7 12 17.2 NE 17 19 9 10 1005.1 - 0.0
21/10:00pm 36.2 32.1 2.3 12 17.6 N 13 15 7 8 1005.0 - 0.0
21/09:30pm 36.8 32.6 1.5 11 18.1 N 13 17 7 9 1004.8 - 0.0
21/09:00pm 37.4 32.9 2.0 11 18.5 N 15 20 8 11 1004.6 1003.9 0.0
21/08:30pm 38.2 33.2 1.3 10 19.1 N 17 20 9 11 1004.4 - 0.0
21/08:00pm 38.8 33.5 1.7 10 19.3 NNE 19 28 10 15 1004.2 - 0.0
21/07:30pm 39.0 34.1 1.9 10 19.4 N 17 22 9 12 1004.4 - 0.0
21/07:00pm 39.2 35.4 2.0 10 19.5 N 11 20 6 11 1004.4 - 0.0
21/06:30pm 39.6 35.9 2.3 10 19.7 NNW 11 20 6 11 1004.6 - 0.0
21/06:00pm 39.5 35.5 0.8 9 20.0 NW 11 17 6 9 1005.0 1004.3 0.0
21/05:30pm 40.0 34.6 1.1 9 20.2 NNW 19 28 10 15 1005.2 - 0.0
21/05:00pm 40.5 36.3 1.5 9 20.5 NW 13 28 7 15 1005.5 - 0.0
21/04:30pm 40.7 34.4 1.7 9 20.5 NW 24 35 13 19 1005.9 - 0.0
21/04:00pm 40.0 34.6 1.1 9 20.2 N 19 32 10 17 1006.2 - 0.0
21/03:30pm 40.3 33.0 -0.3 8 20.7 NNW 28 43 15 23 1006.7 - 0.0
21/03:02pm 40.4 33.3 1.4 9 20.4 N 28 46 15 25 1007.0 - 0.0
21/03:00pm 40.1 33.4 1.2 9 20.3 N 26 41 14 22 1007.0 1006.3 0.0
21/02:30pm 38.9 31.3 0.3 9 19.7 N 30 44 16 24 1007.5 - 0.0
21/02:00pm 39.7 33.1 -0.7 8 20.4 NNE 24 41 13 22 1008.0 - 0.0
21/01:30pm 39.1 32.3 0.5 9 19.8 N 26 44 14 24 1008.6 - 0.0
21/01:00pm 37.5 30.9 -0.7 9 19.0 N 24 37 13 20 1009.3 - 0.0
21/12:30pm 36.7 29.6 -1.3 9 18.7 NNE 26 35 14 19 1009.8 - 0.0
21/12:00pm 36.2 29.0 -1.7 9 18.5 NE 26 35 14 19 1010.0 1009.3 0.0
21/11:30am 34.7 26.6 -2.8 9 17.7 NE 30 37 16 20 1010.2 - 0.0
21/11:00am 35.0 26.6 -2.6 9 17.9 NE 32 41 17 22 1010.2 - 0.0
21/10:30am 33.8 25.3 -2.0 10 17.1 NE 33 39 18 21 1010.3 - 0.0
21/10:00am 32.8 24.2 -2.8 10 16.6 ENE 33 41 18 22 1010.3 - 0.0
21/09:30am 31.9 24.3 -2.2 11 16.0 ENE 28 35 15 19 1010.5 - 0.0
21/09:00am 31.2 22.6 -2.7 11 15.7 ENE 33 39 18 21 1010.4 1009.8 0.0
21/08:30am 30.6 22.6 -2.0 12 15.2 NE 30 39 16 21 1010.4 - 0.0
21/08:00am 30.1 22.2 -1.3 13 14.7 ENE 30 37 16 20 1010.0 - 0.0
21/07:30am 29.6 22.4 -1.7 13 14.5 ENE 26 32 14 17 1009.7 - 0.0
21/07:00am 29.4 21.8 -1.9 13 14.5 ENE 28 35 15 19 1009.3 - 0.0
21/06:30am 29.4 22.6 -1.9 13 14.5 ENE 24 32 13 17 1009.0 - 0.0
21/06:00am 29.5 23.1 -1.8 13 14.5 ENE 22 30 12 16 1008.6 1007.9 0.0
21/05:30am 29.7 23.2 -2.7 12 14.8 ENE 22 28 12 15 1008.7 - 0.0
21/05:00am 30.0 22.7 -2.5 12 14.9 ENE 26 33 14 18 1008.2 - 0.0
21/04:30am 30.3 23.1 -2.2 12 15.0 ENE 26 32 14 17 1008.3 - 0.0
21/04:00am 30.3 24.2 -2.2 12 15.0 ENE 20 26 11 14 1008.3 - 0.0
21/03:30am 30.7 23.7 -3.1 11 15.5 E 24 32 13 17 1008.2 - 0.0
21/03:00am 30.7 24.5 -3.1 11 15.5 ENE 20 26 11 14 1008.3 1007.6 0.0
21/02:30am 31.1 24.9 -2.8 11 15.6 E 20 26 11 14 1008.3 - 0.0
21/02:00am 31.3 24.8 -2.6 11 15.7 E 22 30 12 16 1008.5 - 0.0
21/01:30am 31.4 24.9 -2.6 11 15.8 E 22 28 12 15 1008.7 - 0.0
21/01:00am 31.7 24.7 -3.6 10 16.1 E 24 32 13 17 1009.0 - 0.0
21/12:30am 31.7 24.3 -3.6 10 16.1 E 26 32 14 17 1009.0 - 0.0
21/12:00am 31.9 24.1 -3.5 10 16.3 E 28 37 15 20 1009.3 1008.6 0.0
 
Date/Time
CDT
Temp
°C
App
Temp
°C
Dew
Point
Rel
Hum
%
Delta-T
°C
Wind Press
QNH
hPa
Press
MSL
hPa
Rain
since 9 am
mm
Dir
 
Spd
km/h
Gust
km/h
Spd
kts
Gust
kts
20/11:30pm 32.5 24.4 -3.0 10 16.5 E 30 37 16 20 1009.3 - 0.0
20/11:00pm 33.3 24.5 -1.1 11 16.6 E 35 44 19 24 1009.2 - 0.0
20/10:30pm 33.9 28.3 3.6 15 15.8 E 22 28 12 15 1009.1 - 0.0
20/10:00pm 34.1 28.6 3.8 15 15.9 ESE 22 26 12 14 1009.1 - 0.0
20/09:30pm 34.6 29.3 3.2 14 16.4 ESE 20 24 11 13 1009.2 - 0.0
20/09:00pm 35.3 30.3 3.8 14 16.7 SE 19 22 10 12 1009.1 1008.4 0.0
20/08:30pm 36.1 31.8 3.3 13 17.3 SE 15 22 8 12 1009.0 - 0.0
20/08:00pm 36.9 32.4 4.0 13 17.6 SE 17 20 9 11 1008.7 - 0.0
20/07:30pm 37.3 33.2 4.3 13 17.8 SE 15 20 8 11 1008.5 - 0.0
20/07:00pm 37.7 35.2 4.6 13 17.9 SE 7 13 4 7 1008.2 - 0.0
20/06:30pm 38.3 34.9 3.9 12 18.5 S 11 15 6 8 1008.2 - 0.0
20/06:00pm 38.0 34.7 4.8 13 18.1 ENE 11 19 6 10 1008.4 1007.7 0.0
20/05:30pm 37.7 34.4 4.6 13 17.9 WNW 11 19 6 10 1008.6 - 0.0
20/05:00pm 37.6 33.2 4.5 13 17.9 NW 17 24 9 13 1008.7 - 0.0
20/04:30pm 37.7 35.2 4.6 13 17.9 SSE 7 15 4 8 1009.2 - 0.0
20/04:00pm 38.1 33.5 3.8 12 18.4 S 17 28 9 15 1009.6 - 0.0
20/03:30pm 38.0 34.4 4.8 13 18.1 W 13 24 7 13 1010.1 - 0.0
20/03:00pm 37.3 33.2 4.3 13 17.8 NNW 15 24 8 13 1010.7 1010.1 0.0
20/02:30pm 37.1 34.1 4.1 13 17.7 NE 9 17 5 9 1011.3 - 0.0
20/02:00pm 36.3 32.8 3.5 13 17.3 NNW 11 19 6 10 1011.9 - 0.0
20/01:30pm 36.8 33.0 3.9 13 17.6 E 13 20 7 11 1012.4 - 0.0
20/01:00pm 34.9 29.7 2.4 13 16.8 E 19 26 10 14 1012.9 - 0.0
20/12:00pm 34.3 30.1 1.9 13 16.5 ENE 13 24 7 13 1014.0 1013.3 0.0
20/11:30am 34.0 28.5 1.7 13 16.4 ENE 20 30 11 16 1014.4 - 0.0

Other Formats:

Comma delimited format used in spreadsheet applications
http://www.bom.gov.au/fwo/IDS60801/IDS60801.94476.axf

JavaScript Object Notation format (JSON) in row-major order
http://www.bom.gov.au/fwo/IDS60801/IDS60801.94476.json